createdAt,value
2018-09-02T00:00:51.600Z,17.43
2018-09-02T00:03:20.363Z,16.07
2018-09-02T00:05:48.820Z,16.37
2018-09-02T00:08:17.281Z,16.63
2018-09-02T00:10:46.020Z,16.67
2018-09-02T00:13:15.173Z,16.63
2018-09-02T00:15:43.661Z,16.43
2018-09-02T00:18:12.454Z,16.17
2018-09-02T00:20:41.033Z,16.17
2018-09-02T00:23:09.422Z,16.63
2018-09-02T00:25:38.795Z,16.40
2018-09-02T00:45:27.440Z,15.37
2018-09-02T00:47:56.159Z,15.50
2018-09-02T00:50:24.703Z,14.53
2018-09-02T00:52:53.202Z,15.10
2018-09-02T00:55:21.891Z,14.83
2018-09-02T01:15:11.902Z,14.50
2018-09-02T01:17:41.110Z,14.40
2018-09-02T01:20:10.151Z,14.73
2018-09-02T01:42:52.378Z,15.80
2018-09-02T02:02:40.443Z,13.27
2018-09-02T02:05:09.217Z,13.97
2018-09-02T02:07:37.700Z,14.77
2018-09-02T02:10:07.710Z,14.33
2018-09-02T02:12:36.839Z,13.67
2018-09-02T02:15:06.139Z,14.17
2018-09-02T02:17:34.989Z,14.87
2018-09-02T02:20:03.622Z,13.67
2018-09-02T02:22:33.073Z,14.13
2018-09-02T02:25:03.318Z,13.70
2018-09-02T02:27:31.870Z,15.03
2018-09-02T02:30:01.073Z,14.77
2018-09-02T02:32:29.857Z,15.27
2018-09-02T02:34:58.299Z,15.77
2018-09-02T02:37:26.805Z,16.40
2018-09-02T02:57:17.243Z,15.20
2018-09-02T02:59:45.949Z,15.50
2018-09-02T03:02:14.516Z,16.10
2018-09-02T03:04:43.262Z,14.93
2018-09-02T03:07:12.330Z,14.67
2018-09-02T03:09:41.543Z,14.17
2018-09-02T03:12:10.390Z,14.93
2018-09-02T03:14:38.899Z,14.93
2018-09-02T03:17:07.362Z,15.43
2018-09-02T03:19:36.071Z,14.70
2018-09-02T03:22:04.604Z,14.93
2018-09-02T03:24:33.059Z,15.60
2018-09-02T03:27:01.657Z,15.87
2018-09-02T03:29:31.222Z,14.77
2018-09-02T03:31:59.711Z,14.67
2018-09-02T03:34:28.394Z,14.73
2018-09-02T03:36:57.183Z,15.00
2018-09-02T03:56:47.088Z,16.63
2018-09-02T03:59:16.158Z,16.03
2018-09-02T04:01:44.568Z,15.27
2018-09-02T04:04:13.174Z,15.80
2018-09-02T04:06:41.743Z,15.97
2018-09-02T04:09:11.741Z,17.33
2018-09-02T04:11:40.771Z,16.93
2018-09-02T04:14:09.392Z,16.67
2018-09-02T04:16:37.910Z,16.13
2018-09-02T04:19:07.445Z,16.73
2018-09-02T04:21:35.907Z,16.33
2018-09-02T04:24:04.946Z,16.20
2018-09-02T04:26:34.134Z,16.70
2018-09-02T04:29:02.756Z,16.83
2018-09-02T04:31:31.288Z,17.80
2018-09-02T04:34:00.103Z,16.77
2018-09-02T04:36:28.689Z,17.33
2018-09-02T04:56:19.414Z,14.67
2018-09-02T04:58:47.868Z,13.70
2018-09-02T05:01:16.430Z,14.00
2018-09-02T05:03:45.294Z,14.40
2018-09-02T05:06:13.790Z,14.00
2018-09-02T05:26:04.244Z,14.13
2018-09-02T05:28:33.378Z,14.53
2018-09-02T05:31:02.656Z,14.57
2018-09-02T05:33:32.196Z,13.47
2018-09-02T05:36:01.531Z,13.93
2018-09-02T05:55:52.392Z,14.43
2018-09-02T05:58:20.852Z,14.33
2018-09-02T06:00:49.387Z,14.80
2018-09-02T06:03:18.363Z,14.80
2018-09-02T06:23:07.470Z,15.73
2018-09-02T06:25:36.473Z,16.93
2018-09-02T06:28:04.986Z,16.00
2018-09-02T06:30:35.035Z,16.80
2018-09-02T06:33:05.285Z,19.43
2018-09-02T06:35:34.066Z,16.70
2018-09-02T06:38:02.738Z,17.77
2018-09-02T06:40:31.497Z,16.17
2018-09-02T06:43:00.294Z,17.67
2018-09-02T06:45:29.418Z,17.97
2018-09-02T06:47:58.258Z,16.17
2018-09-02T06:50:27.641Z,17.13
2018-09-02T06:52:56.994Z,17.67
2018-09-02T06:55:26.623Z,18.00
2018-09-02T06:57:55.102Z,17.40
2018-09-02T07:00:24.628Z,17.33
2018-09-02T07:02:54.480Z,17.43
2018-09-02T07:05:22.968Z,18.30
2018-09-02T07:25:13.582Z,16.87
2018-09-02T07:27:44.045Z,18.63
2018-09-02T07:30:13.334Z,17.53
2018-09-02T07:32:43.056Z,19.67
2018-09-02T07:35:11.979Z,18.37
2018-09-02T07:37:40.531Z,17.83
2018-09-02T07:57:29.727Z,17.73
2018-09-02T07:59:58.295Z,16.10
2018-09-02T08:02:27.997Z,17.23
2018-09-02T08:04:57.364Z,16.57
2018-09-02T08:07:25.768Z,15.87
2018-09-02T08:09:55.203Z,15.03
2018-09-02T08:12:24.189Z,17.33
2018-09-02T08:14:52.717Z,15.00
2018-09-02T08:17:22.368Z,15.90
2018-09-02T08:19:51.697Z,17.43
2018-09-02T08:22:20.116Z,17.87
2018-09-02T08:24:48.826Z,17.13
2018-09-02T08:44:38.662Z,17.70
2018-09-02T08:47:07.874Z,16.10
2018-09-02T08:49:37.404Z,16.37
2018-09-02T08:52:06.350Z,15.97
2018-09-02T08:54:34.789Z,16.37
2018-09-02T08:57:03.262Z,16.57
2018-09-02T08:59:32.386Z,15.67
2018-09-02T09:02:00.850Z,17.57
2018-09-02T09:04:29.298Z,16.70
2018-09-02T09:06:57.986Z,15.43
2018-09-02T09:09:27.681Z,16.37
2018-09-02T09:11:56.260Z,16.90
2018-09-02T09:14:24.790Z,16.07
2018-09-02T09:34:14.739Z,16.33
2018-09-02T09:36:43.299Z,16.53
2018-09-02T09:39:12.149Z,20.17
2018-09-02T09:41:40.569Z,17.83
2018-09-02T09:44:09.131Z,19.40
2018-09-02T09:46:37.722Z,18.20
2018-09-02T10:06:28.048Z,14.47
2018-09-02T10:08:57.225Z,13.53
2018-09-02T10:11:27.164Z,15.23
2018-09-02T10:13:56.269Z,10.77
2018-09-02T10:33:47.081Z,10.27
2018-09-02T10:36:15.936Z,10.53
2018-09-02T10:38:44.418Z,9.00
2018-09-02T10:41:13.072Z,8.97
2018-09-02T10:43:41.799Z,9.90
2018-09-02T10:46:10.292Z,9.10
2018-09-02T10:48:38.788Z,7.80
2018-09-02T10:51:07.490Z,8.03
2018-09-02T10:53:36.800Z,9.00
2018-09-02T10:56:05.366Z,7.37
2018-09-02T10:58:34.278Z,7.47
2018-09-02T11:01:03.755Z,7.00
2018-09-02T11:20:54.197Z,5.60
2018-09-02T11:23:22.733Z,5.77
2018-09-02T11:43:13.059Z,6.37
2018-09-02T11:45:41.894Z,5.70
2018-09-02T11:48:10.478Z,5.00
2018-09-02T11:50:39.053Z,4.87
2018-09-02T11:53:07.532Z,5.50
2018-09-02T11:55:36.069Z,5.60
2018-09-02T11:58:04.626Z,5.80
2018-09-02T12:00:33.212Z,5.80
2018-09-02T12:03:01.912Z,5.13
2018-09-02T12:05:30.569Z,5.70
2018-09-02T12:07:59.579Z,5.17
2018-09-02T12:10:28.217Z,4.90
2018-09-02T12:12:56.892Z,4.87
2018-09-02T12:15:26.457Z,4.53
2018-09-02T12:17:54.961Z,4.83
2018-09-02T12:20:23.537Z,4.60
2018-09-02T12:22:52.056Z,4.67
2018-09-02T12:25:20.656Z,5.07
2018-09-02T12:45:11.737Z,4.80
2018-09-02T12:47:40.452Z,4.00
2018-09-02T12:50:08.938Z,4.27
2018-09-02T12:52:37.799Z,4.50
2018-09-02T12:55:06.815Z,4.40
2018-09-02T12:57:36.139Z,4.57
2018-09-02T13:00:04.822Z,4.33
2018-09-02T13:02:33.277Z,4.10
2018-09-02T13:22:22.890Z,4.00
2018-09-02T13:24:51.447Z,4.20
2018-09-02T13:27:19.979Z,3.77
2018-09-02T13:29:48.590Z,3.93
2018-09-02T13:32:17.129Z,4.03
2018-09-02T13:34:45.662Z,4.00
2018-09-02T13:54:35.765Z,4.10
2018-09-02T13:57:04.374Z,3.93
2018-09-02T13:59:33.006Z,3.87
2018-09-02T14:02:01.573Z,4.03
2018-09-02T14:21:51.298Z,3.63
2018-09-02T14:24:20.730Z,4.33
2018-09-02T14:26:49.214Z,4.30
2018-09-02T14:29:17.780Z,4.93
2018-09-02T14:49:15.370Z,7.10
2018-09-02T14:51:43.825Z,6.63
2018-09-02T15:11:35.333Z,5.60
2018-09-02T15:14:04.589Z,5.13
2018-09-02T15:16:33.318Z,5.20
2018-09-02T15:19:02.101Z,5.20
2018-09-02T15:38:52.179Z,5.97
2018-09-02T15:41:20.890Z,6.37
2018-09-02T15:43:49.448Z,6.33
2018-09-02T15:46:17.882Z,6.40
2018-09-02T15:48:46.653Z,6.27
2018-09-02T15:51:15.308Z,6.43
2018-09-02T16:11:05.481Z,7.00
2018-09-02T16:13:34.113Z,7.77
2018-09-02T16:33:24.504Z,8.70
2018-09-02T16:35:53.086Z,8.23
2018-09-02T16:38:21.511Z,8.40
2018-09-02T16:40:49.961Z,8.77
2018-09-02T17:00:40.517Z,11.43
2018-09-02T17:20:35.086Z,12.63
2018-09-02T17:23:09.422Z,11.40
2018-09-02T17:25:38.030Z,11.17
2018-09-02T17:28:06.779Z,10.17
2018-09-02T17:30:36.627Z,10.73
2018-09-02T17:33:06.771Z,9.67
2018-09-02T17:35:35.290Z,10.80
2018-09-02T17:55:25.570Z,10.00
2018-09-02T17:57:54.154Z,9.27
2018-09-02T18:00:57.022Z,9.80
2018-09-02T18:03:25.516Z,10.07
2018-09-02T18:05:54.099Z,11.33
2018-09-02T18:08:23.281Z,10.87
2018-09-02T18:10:52.099Z,10.17
2018-09-02T18:13:20.574Z,11.27
2018-09-02T18:15:49.756Z,10.07
2018-09-02T18:18:19.873Z,11.07
2018-09-02T18:20:49.062Z,9.97
2018-09-02T18:23:17.589Z,10.83
2018-09-02T18:43:07.448Z,13.10
2018-09-02T18:45:36.269Z,12.03
2018-09-02T18:48:04.817Z,11.23
2018-09-02T18:50:33.410Z,11.03
2018-09-02T18:53:02.018Z,10.30
2018-09-02T19:12:52.147Z,10.80
2018-09-02T19:32:42.778Z,12.10
2018-09-02T19:52:33.304Z,14.00
2018-09-02T20:12:24.027Z,12.53
2018-09-02T20:14:52.603Z,14.03
2018-09-02T20:17:21.131Z,14.13
2018-09-02T20:19:49.759Z,14.03
2018-09-02T20:39:38.880Z,12.27
2018-09-02T20:42:07.527Z,12.27
2018-09-02T20:44:36.069Z,12.93
2018-09-02T20:47:04.634Z,12.33
2018-09-02T20:49:33.526Z,11.80
2018-09-02T21:09:22.411Z,10.80
2018-09-02T21:11:51.004Z,11.70
2018-09-02T21:14:20.251Z,11.43
2018-09-02T21:34:10.442Z,13.50
2018-09-02T21:36:39.710Z,13.90
2018-09-02T21:56:29.888Z,12.63
2018-09-02T21:58:59.167Z,13.13
2018-09-02T22:01:27.670Z,11.27
2018-09-02T22:03:56.128Z,11.33
2018-09-02T22:06:24.559Z,11.37
2018-09-02T22:08:53.694Z,10.70
2018-09-02T22:11:22.476Z,11.03
2018-09-02T22:13:51.150Z,10.37
2018-09-02T22:16:21.693Z,10.50
2018-09-02T22:18:50.399Z,11.37
2018-09-02T22:38:39.937Z,15.03
2018-09-02T22:41:09.265Z,14.43
2018-09-02T22:43:38.926Z,14.33
2018-09-02T22:46:08.377Z,15.63
2018-09-02T22:48:36.849Z,14.00
2018-09-02T22:51:05.705Z,14.27
2018-09-02T23:10:56.346Z,14.30
2018-09-02T23:13:26.268Z,14.37
2018-09-02T23:15:54.979Z,13.63
2018-09-02T23:18:23.989Z,14.70
2018-09-02T23:20:52.440Z,13.90
2018-09-02T23:23:21.268Z,14.03
2018-09-02T23:25:49.958Z,12.90
2018-09-02T23:45:39.694Z,12.97
2018-09-02T23:48:08.340Z,14.30
2018-09-02T23:50:36.850Z,14.03
2018-09-02T23:53:05.934Z,13.53
2018-09-02T23:55:34.620Z,14.53
2018-09-02T23:58:03.342Z,18.73
